sensor_id;sensor_type;location;lat;lon;timestamp;P1;durP1;ratioP1;P2;durP2;ratioP2
75928;SDS011;64606;44.062;2.986;2023-06-24T00:02:07;5.80;;;3.25;;
75928;SDS011;64606;44.062;2.986;2023-06-24T00:04:33;7.85;;;3.28;;
75928;SDS011;64606;44.062;2.986;2023-06-24T00:07:00;6.60;;;3.80;;
75928;SDS011;64606;44.062;2.986;2023-06-24T00:09:26;6.90;;;3.35;;
75928;SDS011;64606;44.062;2.986;2023-06-24T00:11:53;8.63;;;3.40;;
75928;SDS011;64606;44.062;2.986;2023-06-24T00:14:20;8.45;;;3.67;;
75928;SDS011;64606;44.062;2.986;2023-06-24T00:16:47;6.05;;;3.53;;
75928;SDS011;64606;44.062;2.986;2023-06-24T00:19:19;5.72;;;3.30;;
75928;SDS011;64606;44.062;2.986;2023-06-24T00:21:46;7.65;;;3.67;;
75928;SDS011;64606;44.062;2.986;2023-06-24T00:24:12;5.80;;;3.70;;
75928;SDS011;64606;44.062;2.986;2023-06-24T00:26:38;8.32;;;4.10;;
75928;SDS011;64606;44.062;2.986;2023-06-24T00:29:04;5.60;;;3.40;;
75928;SDS011;64606;44.062;2.986;2023-06-24T00:31:30;6.45;;;3.50;;
75928;SDS011;64606;44.062;2.986;2023-06-24T00:33:57;5.47;;;3.78;;
75928;SDS011;64606;44.062;2.986;2023-06-24T00:36:23;8.85;;;3.75;;
75928;SDS011;64606;44.062;2.986;2023-06-24T00:38:49;5.50;;;3.50;;
75928;SDS011;64606;44.062;2.986;2023-06-24T00:41:16;7.75;;;3.65;;
75928;SDS011;64606;44.062;2.986;2023-06-24T00:43:43;5.32;;;3.60;;
75928;SDS011;64606;44.062;2.986;2023-06-24T00:46:10;7.55;;;3.60;;
75928;SDS011;64606;44.062;2.986;2023-06-24T00:48:36;5.72;;;3.15;;
75928;SDS011;64606;44.062;2.986;2023-06-24T00:51:02;5.53;;;3.78;;
75928;SDS011;64606;44.062;2.986;2023-06-24T00:53:28;5.95;;;3.88;;
75928;SDS011;64606;44.062;2.986;2023-06-24T00:55:55;6.63;;;3.85;;
75928;SDS011;64606;44.062;2.986;2023-06-24T00:58:27;8.63;;;4.00;;
75928;SDS011;64606;44.062;2.986;2023-06-24T01:00:55;4.80;;;3.50;;
75928;SDS011;64606;44.062;2.986;2023-06-24T01:03:26;7.55;;;3.53;;
75928;SDS011;64606;44.062;2.986;2023-06-24T01:05:53;6.00;;;3.65;;
75928;SDS011;64606;44.062;2.986;2023-06-24T01:08:19;7.35;;;3.75;;
75928;SDS011;64606;44.062;2.986;2023-06-24T01:10:48;7.18;;;3.83;;
75928;SDS011;64606;44.062;2.986;2023-06-24T01:13:15;8.23;;;3.38;;
75928;SDS011;64606;44.062;2.986;2023-06-24T01:15:41;5.65;;;3.67;;
75928;SDS011;64606;44.062;2.986;2023-06-24T01:18:10;5.75;;;3.42;;
75928;SDS011;64606;44.062;2.986;2023-06-24T01:20:42;6.00;;;3.40;;
75928;SDS011;64606;44.062;2.986;2023-06-24T01:23:17;6.90;;;3.40;;
75928;SDS011;64606;44.062;2.986;2023-06-24T01:28:17;5.53;;;3.63;;
75928;SDS011;64606;44.062;2.986;2023-06-24T01:34:06;7.40;;;3.45;;
75928;SDS011;64606;44.062;2.986;2023-06-24T01:36:25;6.75;;;4.10;;
75928;SDS011;64606;44.062;2.986;2023-06-24T01:38:52;5.70;;;3.47;;
75928;SDS011;64606;44.062;2.986;2023-06-24T01:41:21;5.90;;;3.47;;
75928;SDS011;64606;44.062;2.986;2023-06-24T01:43:48;7.97;;;3.78;;
75928;SDS011;64606;44.062;2.986;2023-06-24T01:46:16;5.55;;;3.60;;
75928;SDS011;64606;44.062;2.986;2023-06-24T01:48:45;5.07;;;3.40;;
75928;SDS011;64606;44.062;2.986;2023-06-24T01:51:13;6.93;;;3.55;;
75928;SDS011;64606;44.062;2.986;2023-06-24T01:53:42;5.97;;;3.50;;
75928;SDS011;64606;44.062;2.986;2023-06-24T01:56:09;6.72;;;3.78;;
75928;SDS011;64606;44.062;2.986;2023-06-24T01:58:36;5.30;;;3.85;;
75928;SDS011;64606;44.062;2.986;2023-06-24T02:01:03;5.05;;;3.28;;
75928;SDS011;64606;44.062;2.986;2023-06-24T02:03:29;7.53;;;3.42;;
75928;SDS011;64606;44.062;2.986;2023-06-24T02:05:57;4.97;;;3.53;;
75928;SDS011;64606;44.062;2.986;2023-06-24T02:08:24;5.93;;;3.63;;
75928;SDS011;64606;44.062;2.986;2023-06-24T02:10:50;5.88;;;3.28;;
75928;SDS011;64606;44.062;2.986;2023-06-24T02:13:17;6.25;;;3.75;;
75928;SDS011;64606;44.062;2.986;2023-06-24T02:15:43;6.93;;;3.58;;
75928;SDS011;64606;44.062;2.986;2023-06-24T02:18:11;6.60;;;3.70;;
75928;SDS011;64606;44.062;2.986;2023-06-24T02:20:38;11.30;;;3.72;;
75928;SDS011;64606;44.062;2.986;2023-06-24T02:23:06;5.18;;;3.42;;
75928;SDS011;64606;44.062;2.986;2023-06-24T02:25:33;6.47;;;3.33;;
75928;SDS011;64606;44.062;2.986;2023-06-24T02:27:59;6.25;;;4.13;;
75928;SDS011;64606;44.062;2.986;2023-06-24T02:30:26;5.28;;;3.50;;
75928;SDS011;64606;44.062;2.986;2023-06-24T02:32:52;4.57;;;3.40;;
75928;SDS011;64606;44.062;2.986;2023-06-24T02:35:19;9.18;;;3.67;;
75928;SDS011;64606;44.062;2.986;2023-06-24T02:37:45;7.13;;;3.63;;
75928;SDS011;64606;44.062;2.986;2023-06-24T02:40:11;7.55;;;3.83;;
75928;SDS011;64606;44.062;2.986;2023-06-24T02:42:37;5.10;;;3.65;;
75928;SDS011;64606;44.062;2.986;2023-06-24T02:45:04;6.65;;;3.22;;
75928;SDS011;64606;44.062;2.986;2023-06-24T02:47:30;5.05;;;3.13;;
75928;SDS011;64606;44.062;2.986;2023-06-24T02:49:57;5.20;;;3.30;;
75928;SDS011;64606;44.062;2.986;2023-06-24T02:52:24;6.53;;;3.50;;
75928;SDS011;64606;44.062;2.986;2023-06-24T02:54:55;7.38;;;3.53;;
75928;SDS011;64606;44.062;2.986;2023-06-24T02:57:21;9.50;;;3.60;;
75928;SDS011;64606;44.062;2.986;2023-06-24T02:59:49;5.72;;;3.50;;
75928;SDS011;64606;44.062;2.986;2023-06-24T03:02:15;6.88;;;3.80;;
75928;SDS011;64606;44.062;2.986;2023-06-24T03:04:42;7.72;;;3.85;;
75928;SDS011;64606;44.062;2.986;2023-06-24T03:07:08;9.73;;;4.03;;
75928;SDS011;64606;44.062;2.986;2023-06-24T03:09:35;7.57;;;3.80;;
75928;SDS011;64606;44.062;2.986;2023-06-24T03:12:01;6.22;;;3.28;;
75928;SDS011;64606;44.062;2.986;2023-06-24T03:14:27;4.45;;;3.03;;
75928;SDS011;64606;44.062;2.986;2023-06-24T03:16:54;7.10;;;3.63;;
75928;SDS011;64606;44.062;2.986;2023-06-24T03:19:20;6.78;;;3.60;;
75928;SDS011;64606;44.062;2.986;2023-06-24T03:21:46;7.38;;;3.35;;
75928;SDS011;64606;44.062;2.986;2023-06-24T03:24:12;5.55;;;3.60;;
75928;SDS011;64606;44.062;2.986;2023-06-24T03:26:38;6.68;;;3.20;;
75928;SDS011;64606;44.062;2.986;2023-06-24T03:29:07;6.93;;;4.20;;
75928;SDS011;64606;44.062;2.986;2023-06-24T03:31:34;6.30;;;3.92;;
75928;SDS011;64606;44.062;2.986;2023-06-24T03:34:00;7.65;;;3.70;;
75928;SDS011;64606;44.062;2.986;2023-06-24T03:36:26;6.15;;;3.33;;
75928;SDS011;64606;44.062;2.986;2023-06-24T03:38:52;5.15;;;3.03;;
75928;SDS011;64606;44.062;2.986;2023-06-24T03:41:18;6.55;;;3.65;;
75928;SDS011;64606;44.062;2.986;2023-06-24T03:43:44;6.00;;;3.30;;
75928;SDS011;64606;44.062;2.986;2023-06-24T03:46:11;5.88;;;3.22;;
75928;SDS011;64606;44.062;2.986;2023-06-24T03:48:37;8.63;;;3.65;;
75928;SDS011;64606;44.062;2.986;2023-06-24T03:51:03;8.02;;;3.42;;
75928;SDS011;64606;44.062;2.986;2023-06-24T03:53:29;7.78;;;3.47;;
75928;SDS011;64606;44.062;2.986;2023-06-24T03:55:56;9.23;;;3.83;;
75928;SDS011;64606;44.062;2.986;2023-06-24T03:58:22;9.15;;;3.88;;
75928;SDS011;64606;44.062;2.986;2023-06-24T04:00:48;7.55;;;4.18;;
75928;SDS011;64606;44.062;2.986;2023-06-24T04:03:15;7.55;;;3.90;;
75928;SDS011;64606;44.062;2.986;2023-06-24T04:05:43;6.20;;;3.72;;
75928;SDS011;64606;44.062;2.986;2023-06-24T04:08:09;17.27;;;4.00;;
75928;SDS011;64606;44.062;2.986;2023-06-24T04:10:36;6.88;;;3.42;;
75928;SDS011;64606;44.062;2.986;2023-06-24T04:13:02;6.05;;;3.40;;
75928;SDS011;64606;44.062;2.986;2023-06-24T04:15:28;8.68;;;3.85;;
75928;SDS011;64606;44.062;2.986;2023-06-24T04:17:54;7.50;;;3.70;;
75928;SDS011;64606;44.062;2.986;2023-06-24T04:20:20;9.07;;;4.03;;
75928;SDS011;64606;44.062;2.986;2023-06-24T04:22:46;8.63;;;4.05;;
75928;SDS011;64606;44.062;2.986;2023-06-24T04:25:12;5.28;;;3.00;;
75928;SDS011;64606;44.062;2.986;2023-06-24T04:27:39;6.32;;;3.70;;
75928;SDS011;64606;44.062;2.986;2023-06-24T04:30:05;7.10;;;3.60;;
75928;SDS011;64606;44.062;2.986;2023-06-24T04:32:31;7.18;;;3.80;;
75928;SDS011;64606;44.062;2.986;2023-06-24T04:34:58;5.15;;;3.22;;
75928;SDS011;64606;44.062;2.986;2023-06-24T04:37:27;8.40;;;3.70;;
75928;SDS011;64606;44.062;2.986;2023-06-24T04:39:53;7.05;;;3.67;;
75928;SDS011;64606;44.062;2.986;2023-06-24T04:42:20;7.93;;;3.45;;
75928;SDS011;64606;44.062;2.986;2023-06-24T04:44:47;7.78;;;3.15;;
75928;SDS011;64606;44.062;2.986;2023-06-24T04:47:16;4.40;;;2.90;;
75928;SDS011;64606;44.062;2.986;2023-06-24T04:49:42;10.75;;;3.78;;
75928;SDS011;64606;44.062;2.986;2023-06-24T04:52:09;8.40;;;3.97;;
75928;SDS011;64606;44.062;2.986;2023-06-24T04:54:36;6.93;;;3.45;;
75928;SDS011;64606;44.062;2.986;2023-06-24T04:57:02;7.88;;;3.33;;
75928;SDS011;64606;44.062;2.986;2023-06-24T04:59:28;7.28;;;3.78;;
75928;SDS011;64606;44.062;2.986;2023-06-24T05:01:54;9.18;;;3.80;;
75928;SDS011;64606;44.062;2.986;2023-06-24T05:04:20;8.30;;;3.60;;
75928;SDS011;64606;44.062;2.986;2023-06-24T05:06:47;7.35;;;3.72;;
75928;SDS011;64606;44.062;2.986;2023-06-24T05:09:13;9.02;;;3.47;;
75928;SDS011;64606;44.062;2.986;2023-06-24T05:11:42;5.70;;;3.50;;
75928;SDS011;64606;44.062;2.986;2023-06-24T05:14:08;5.10;;;3.42;;
75928;SDS011;64606;44.062;2.986;2023-06-24T05:16:34;7.82;;;3.80;;
75928;SDS011;64606;44.062;2.986;2023-06-24T05:19:00;7.68;;;3.63;;
75928;SDS011;64606;44.062;2.986;2023-06-24T05:21:26;5.88;;;3.30;;
75928;SDS011;64606;44.062;2.986;2023-06-24T05:23:52;6.20;;;3.17;;
75928;SDS011;64606;44.062;2.986;2023-06-24T05:26:18;7.97;;;3.30;;
75928;SDS011;64606;44.062;2.986;2023-06-24T05:28:44;6.82;;;3.70;;
75928;SDS011;64606;44.062;2.986;2023-06-24T05:31:11;7.50;;;3.63;;
75928;SDS011;64606;44.062;2.986;2023-06-24T05:33:37;4.82;;;3.15;;
75928;SDS011;64606;44.062;2.986;2023-06-24T05:36:03;7.07;;;3.85;;
75928;SDS011;64606;44.062;2.986;2023-06-24T05:38:29;6.07;;;3.78;;
75928;SDS011;64606;44.062;2.986;2023-06-24T05:40:55;5.25;;;3.60;;
75928;SDS011;64606;44.062;2.986;2023-06-24T05:43:21;11.18;;;3.70;;
75928;SDS011;64606;44.062;2.986;2023-06-24T05:45:47;6.93;;;3.47;;
75928;SDS011;64606;44.062;2.986;2023-06-24T05:48:13;5.45;;;3.10;;
75928;SDS011;64606;44.062;2.986;2023-06-24T05:50:39;6.30;;;3.63;;
75928;SDS011;64606;44.062;2.986;2023-06-24T05:53:06;6.38;;;3.38;;
75928;SDS011;64606;44.062;2.986;2023-06-24T05:55:32;8.23;;;3.88;;
75928;SDS011;64606;44.062;2.986;2023-06-24T05:57:58;6.22;;;3.75;;
75928;SDS011;64606;44.062;2.986;2023-06-24T06:00:24;6.13;;;3.33;;
75928;SDS011;64606;44.062;2.986;2023-06-24T06:02:50;5.38;;;3.30;;
75928;SDS011;64606;44.062;2.986;2023-06-24T06:05:16;7.07;;;3.97;;
75928;SDS011;64606;44.062;2.986;2023-06-24T06:07:42;8.70;;;3.13;;
75928;SDS011;64606;44.062;2.986;2023-06-24T06:10:09;6.07;;;3.20;;
75928;SDS011;64606;44.062;2.986;2023-06-24T06:12:35;5.70;;;3.53;;
75928;SDS011;64606;44.062;2.986;2023-06-24T06:15:02;6.35;;;3.58;;
75928;SDS011;64606;44.062;2.986;2023-06-24T06:17:28;7.78;;;3.67;;
75928;SDS011;64606;44.062;2.986;2023-06-24T06:19:54;4.38;;;2.88;;
75928;SDS011;64606;44.062;2.986;2023-06-24T06:22:20;7.95;;;3.30;;
75928;SDS011;64606;44.062;2.986;2023-06-24T06:24:46;5.70;;;3.35;;
75928;SDS011;64606;44.062;2.986;2023-06-24T06:27:12;6.18;;;3.70;;
75928;SDS011;64606;44.062;2.986;2023-06-24T06:29:38;7.32;;;3.47;;
75928;SDS011;64606;44.062;2.986;2023-06-24T06:32:05;5.15;;;3.45;;
75928;SDS011;64606;44.062;2.986;2023-06-24T06:34:31;6.55;;;3.35;;
75928;SDS011;64606;44.062;2.986;2023-06-24T06:36:57;8.13;;;3.30;;
75928;SDS011;64606;44.062;2.986;2023-06-24T06:39:24;4.47;;;3.05;;
75928;SDS011;64606;44.062;2.986;2023-06-24T06:41:50;5.93;;;3.33;;
75928;SDS011;64606;44.062;2.986;2023-06-24T06:44:16;7.15;;;3.35;;
75928;SDS011;64606;44.062;2.986;2023-06-24T06:46:42;11.05;;;3.22;;
75928;SDS011;64606;44.062;2.986;2023-06-24T06:49:08;7.88;;;2.90;;
75928;SDS011;64606;44.062;2.986;2023-06-24T06:51:34;6.28;;;2.90;;
75928;SDS011;64606;44.062;2.986;2023-06-24T06:54:01;5.90;;;3.20;;
75928;SDS011;64606;44.062;2.986;2023-06-24T06:56:27;8.48;;;3.60;;
75928;SDS011;64606;44.062;2.986;2023-06-24T06:58:54;5.50;;;3.38;;
75928;SDS011;64606;44.062;2.986;2023-06-24T07:01:20;9.77;;;3.70;;
75928;SDS011;64606;44.062;2.986;2023-06-24T07:03:46;5.18;;;3.30;;
75928;SDS011;64606;44.062;2.986;2023-06-24T07:06:12;7.45;;;3.70;;
75928;SDS011;64606;44.062;2.986;2023-06-24T07:08:38;4.95;;;3.30;;
75928;SDS011;64606;44.062;2.986;2023-06-24T07:11:04;6.32;;;3.35;;
75928;SDS011;64606;44.062;2.986;2023-06-24T07:13:31;6.13;;;3.22;;
75928;SDS011;64606;44.062;2.986;2023-06-24T07:15:57;6.72;;;2.88;;
75928;SDS011;64606;44.062;2.986;2023-06-24T07:18:23;8.73;;;3.22;;
75928;SDS011;64606;44.062;2.986;2023-06-24T07:20:49;6.10;;;2.80;;
75928;SDS011;64606;44.062;2.986;2023-06-24T07:23:15;4.07;;;2.88;;
75928;SDS011;64606;44.062;2.986;2023-06-24T07:25:41;5.18;;;3.13;;
75928;SDS011;64606;44.062;2.986;2023-06-24T07:28:07;4.82;;;3.10;;
75928;SDS011;64606;44.062;2.986;2023-06-24T07:30:34;4.88;;;2.70;;
75928;SDS011;64606;44.062;2.986;2023-06-24T07:33:00;4.65;;;2.60;;
75928;SDS011;64606;44.062;2.986;2023-06-24T07:35:30;3.65;;;2.53;;
75928;SDS011;64606;44.062;2.986;2023-06-24T07:37:57;4.93;;;2.50;;
75928;SDS011;64606;44.062;2.986;2023-06-24T07:40:23;3.40;;;2.50;;
75928;SDS011;64606;44.062;2.986;2023-06-24T07:42:49;3.80;;;2.67;;
75928;SDS011;64606;44.062;2.986;2023-06-24T07:45:15;4.40;;;2.63;;
75928;SDS011;64606;44.062;2.986;2023-06-24T07:47:41;5.97;;;2.83;;
75928;SDS011;64606;44.062;2.986;2023-06-24T07:50:08;7.20;;;3.47;;
75928;SDS011;64606;44.062;2.986;2023-06-24T07:52:36;7.05;;;3.20;;
75928;SDS011;64606;44.062;2.986;2023-06-24T07:55:02;4.82;;;2.53;;
75928;SDS011;64606;44.062;2.986;2023-06-24T07:57:29;4.88;;;2.80;;
75928;SDS011;64606;44.062;2.986;2023-06-24T07:59:55;4.82;;;2.70;;
75928;SDS011;64606;44.062;2.986;2023-06-24T08:02:21;8.35;;;3.15;;
75928;SDS011;64606;44.062;2.986;2023-06-24T08:04:49;5.03;;;2.65;;
75928;SDS011;64606;44.062;2.986;2023-06-24T08:07:15;4.50;;;2.35;;
75928;SDS011;64606;44.062;2.986;2023-06-24T08:09:41;4.10;;;2.92;;
75928;SDS011;64606;44.062;2.986;2023-06-24T08:12:08;3.88;;;2.30;;
75928;SDS011;64606;44.062;2.986;2023-06-24T08:14:34;5.88;;;3.08;;
75928;SDS011;64606;44.062;2.986;2023-06-24T08:17:00;4.07;;;2.50;;
75928;SDS011;64606;44.062;2.986;2023-06-24T08:19:27;4.75;;;2.83;;
75928;SDS011;64606;44.062;2.986;2023-06-24T08:21:53;5.65;;;2.42;;
75928;SDS011;64606;44.062;2.986;2023-06-24T08:24:19;7.97;;;2.60;;
75928;SDS011;64606;44.062;2.986;2023-06-24T08:26:45;4.70;;;2.80;;
75928;SDS011;64606;44.062;2.986;2023-06-24T08:29:11;5.25;;;2.90;;
75928;SDS011;64606;44.062;2.986;2023-06-24T08:31:37;5.70;;;2.75;;
75928;SDS011;64606;44.062;2.986;2023-06-24T08:34:03;5.43;;;2.40;;
75928;SDS011;64606;44.062;2.986;2023-06-24T08:36:31;3.47;;;2.63;;
75928;SDS011;64606;44.062;2.986;2023-06-24T08:38:57;7.28;;;2.70;;
75928;SDS011;64606;44.062;2.986;2023-06-24T08:41:23;7.18;;;2.97;;
75928;SDS011;64606;44.062;2.986;2023-06-24T08:43:50;4.22;;;2.58;;
75928;SDS011;64606;44.062;2.986;2023-06-24T08:46:16;3.88;;;2.25;;
75928;SDS011;64606;44.062;2.986;2023-06-24T08:48:44;3.33;;;2.40;;
75928;SDS011;64606;44.062;2.986;2023-06-24T08:51:11;4.03;;;2.60;;
75928;SDS011;64606;44.062;2.986;2023-06-24T08:53:37;4.15;;;2.13;;
75928;SDS011;64606;44.062;2.986;2023-06-24T08:56:04;3.63;;;2.20;;
75928;SDS011;64606;44.062;2.986;2023-06-24T08:58:31;4.05;;;2.42;;
75928;SDS011;64606;44.062;2.986;2023-06-24T09:00:57;2.67;;;2.20;;
75928;SDS011;64606;44.062;2.986;2023-06-24T09:03:23;3.53;;;2.30;;
75928;SDS011;64606;44.062;2.986;2023-06-24T09:05:49;3.90;;;2.15;;
75928;SDS011;64606;44.062;2.986;2023-06-24T09:08:15;3.40;;;2.10;;
75928;SDS011;64606;44.062;2.986;2023-06-24T09:10:41;3.15;;;2.25;;
75928;SDS011;64606;44.062;2.986;2023-06-24T09:13:07;4.28;;;2.50;;
75928;SDS011;64606;44.062;2.986;2023-06-24T09:15:34;3.45;;;2.50;;
75928;SDS011;64606;44.062;2.986;2023-06-24T09:18:00;5.63;;;2.53;;
75928;SDS011;64606;44.062;2.986;2023-06-24T09:20:27;5.32;;;3.47;;
75928;SDS011;64606;44.062;2.986;2023-06-24T09:23:02;5.50;;;2.50;;
75928;SDS011;64606;44.062;2.986;2023-06-24T09:25:28;6.82;;;2.40;;
75928;SDS011;64606;44.062;2.986;2023-06-24T09:27:54;6.32;;;2.40;;
75928;SDS011;64606;44.062;2.986;2023-06-24T09:32:53;5.82;;;2.60;;
75928;SDS011;64606;44.062;2.986;2023-06-24T09:35:20;3.50;;;2.35;;
75928;SDS011;64606;44.062;2.986;2023-06-24T09:37:50;3.70;;;2.55;;
75928;SDS011;64606;44.062;2.986;2023-06-24T09:40:16;4.10;;;2.60;;
75928;SDS011;64606;44.062;2.986;2023-06-24T09:42:56;5.50;;;2.65;;
75928;SDS011;64606;44.062;2.986;2023-06-24T09:45:23;5.25;;;2.30;;
75928;SDS011;64606;44.062;2.986;2023-06-24T09:47:49;4.18;;;2.90;;
75928;SDS011;64606;44.062;2.986;2023-06-24T09:50:16;3.97;;;2.80;;
75928;SDS011;64606;44.062;2.986;2023-06-24T09:52:43;5.10;;;3.00;;
75928;SDS011;64606;44.062;2.986;2023-06-24T09:55:10;2.75;;;2.22;;
75928;SDS011;64606;44.062;2.986;2023-06-24T09:57:38;7.95;;;2.58;;
75928;SDS011;64606;44.062;2.986;2023-06-24T10:00:05;4.15;;;2.28;;
75928;SDS011;64606;44.062;2.986;2023-06-24T10:02:32;4.55;;;2.80;;
75928;SDS011;64606;44.062;2.986;2023-06-24T10:04:59;3.85;;;2.50;;
75928;SDS011;64606;44.062;2.986;2023-06-24T10:07:26;4.40;;;2.53;;
75928;SDS011;64606;44.062;2.986;2023-06-24T10:09:53;4.78;;;2.72;;
75928;SDS011;64606;44.062;2.986;2023-06-24T10:12:19;3.55;;;2.35;;
75928;SDS011;64606;44.062;2.986;2023-06-24T10:14:46;4.85;;;2.50;;
75928;SDS011;64606;44.062;2.986;2023-06-24T10:17:12;3.90;;;2.50;;
75928;SDS011;64606;44.062;2.986;2023-06-24T10:19:47;3.45;;;2.55;;
75928;SDS011;64606;44.062;2.986;2023-06-24T10:22:13;4.65;;;2.50;;
75928;SDS011;64606;44.062;2.986;2023-06-24T10:24:40;4.55;;;2.78;;
75928;SDS011;64606;44.062;2.986;2023-06-24T10:27:08;4.85;;;2.60;;
75928;SDS011;64606;44.062;2.986;2023-06-24T10:29:35;5.40;;;2.65;;
75928;SDS011;64606;44.062;2.986;2023-06-24T10:37:18;3.65;;;2.88;;
75928;SDS011;64606;44.062;2.986;2023-06-24T10:44:50;4.05;;;2.15;;
75928;SDS011;64606;44.062;2.986;2023-06-24T10:47:17;3.08;;;2.40;;
75928;SDS011;64606;44.062;2.986;2023-06-24T10:49:43;4.75;;;2.70;;
75928;SDS011;64606;44.062;2.986;2023-06-24T10:52:09;3.10;;;2.70;;
75928;SDS011;64606;44.062;2.986;2023-06-24T10:54:39;6.28;;;2.85;;
75928;SDS011;64606;44.062;2.986;2023-06-24T10:57:06;5.68;;;2.78;;
75928;SDS011;64606;44.062;2.986;2023-06-24T10:59:36;4.70;;;3.00;;
75928;SDS011;64606;44.062;2.986;2023-06-24T11:02:05;6.57;;;2.50;;
75928;SDS011;64606;44.062;2.986;2023-06-24T11:04:31;3.60;;;2.63;;
75928;SDS011;64606;44.062;2.986;2023-06-24T11:07:00;6.32;;;3.28;;
75928;SDS011;64606;44.062;2.986;2023-06-24T11:09:26;11.30;;;3.88;;
75928;SDS011;64606;44.062;2.986;2023-06-24T11:11:53;5.82;;;3.13;;
75928;SDS011;64606;44.062;2.986;2023-06-24T11:14:22;3.75;;;2.60;;
75928;SDS011;64606;44.062;2.986;2023-06-24T11:16:49;5.07;;;2.70;;
75928;SDS011;64606;44.062;2.986;2023-06-24T11:19:15;6.57;;;4.03;;
75928;SDS011;64606;44.062;2.986;2023-06-24T11:21:41;4.97;;;3.10;;
75928;SDS011;64606;44.062;2.986;2023-06-24T11:24:07;3.05;;;2.50;;
75928;SDS011;64606;44.062;2.986;2023-06-24T11:26:36;4.97;;;2.70;;
75928;SDS011;64606;44.062;2.986;2023-06-24T11:29:09;6.40;;;2.95;;
75928;SDS011;64606;44.062;2.986;2023-06-24T11:31:36;7.15;;;3.78;;
75928;SDS011;64606;44.062;2.986;2023-06-24T11:34:03;4.68;;;2.60;;
75928;SDS011;64606;44.062;2.986;2023-06-24T11:36:29;3.58;;;2.75;;
75928;SDS011;64606;44.062;2.986;2023-06-24T11:38:55;6.15;;;3.10;;
75928;SDS011;64606;44.062;2.986;2023-06-24T11:41:21;3.80;;;2.45;;
75928;SDS011;64606;44.062;2.986;2023-06-24T11:43:48;5.65;;;3.30;;
75928;SDS011;64606;44.062;2.986;2023-06-24T11:46:24;5.75;;;3.95;;
75928;SDS011;64606;44.062;2.986;2023-06-24T11:48:50;6.60;;;3.78;;
75928;SDS011;64606;44.062;2.986;2023-06-24T11:51:17;6.15;;;3.67;;
75928;SDS011;64606;44.062;2.986;2023-06-24T11:53:43;5.82;;;3.35;;
75928;SDS011;64606;44.062;2.986;2023-06-24T11:56:12;3.22;;;2.67;;
75928;SDS011;64606;44.062;2.986;2023-06-24T11:58:38;5.07;;;3.38;;
75928;SDS011;64606;44.062;2.986;2023-06-24T12:01:07;6.00;;;3.90;;
75928;SDS011;64606;44.062;2.986;2023-06-24T12:03:33;8.48;;;3.10;;
75928;SDS011;64606;44.062;2.986;2023-06-24T12:06:00;9.07;;;3.97;;
75928;SDS011;64606;44.062;2.986;2023-06-24T12:08:26;5.05;;;3.10;;
75928;SDS011;64606;44.062;2.986;2023-06-24T12:10:52;6.85;;;3.15;;
75928;SDS011;64606;44.062;2.986;2023-06-24T12:13:18;4.53;;;2.97;;
75928;SDS011;64606;44.062;2.986;2023-06-24T12:15:44;4.68;;;3.55;;
75928;SDS011;64606;44.062;2.986;2023-06-24T12:18:11;3.92;;;2.92;;
75928;SDS011;64606;44.062;2.986;2023-06-24T12:20:37;5.95;;;3.38;;
75928;SDS011;64606;44.062;2.986;2023-06-24T12:23:03;4.45;;;2.55;;
75928;SDS011;64606;44.062;2.986;2023-06-24T12:25:30;3.75;;;2.85;;
75928;SDS011;64606;44.062;2.986;2023-06-24T12:27:56;4.35;;;3.00;;
75928;SDS011;64606;44.062;2.986;2023-06-24T12:30:22;3.92;;;2.83;;
75928;SDS011;64606;44.062;2.986;2023-06-24T12:32:51;3.88;;;2.90;;
75928;SDS011;64606;44.062;2.986;2023-06-24T12:35:17;4.07;;;2.80;;
75928;SDS011;64606;44.062;2.986;2023-06-24T12:37:43;4.38;;;2.25;;
75928;SDS011;64606;44.062;2.986;2023-06-24T12:40:10;3.33;;;2.60;;
75928;SDS011;64606;44.062;2.986;2023-06-24T12:42:36;3.85;;;2.42;;
75928;SDS011;64606;44.062;2.986;2023-06-24T12:45:02;5.25;;;3.05;;
75928;SDS011;64606;44.062;2.986;2023-06-24T12:47:29;4.93;;;2.60;;
75928;SDS011;64606;44.062;2.986;2023-06-24T12:49:55;4.35;;;2.90;;
75928;SDS011;64606;44.062;2.986;2023-06-24T12:52:21;5.43;;;3.22;;
75928;SDS011;64606;44.062;2.986;2023-06-24T12:54:47;6.07;;;2.95;;
75928;SDS011;64606;44.062;2.986;2023-06-24T12:57:14;3.75;;;2.90;;
75928;SDS011;64606;44.062;2.986;2023-06-24T12:59:41;4.05;;;2.72;;
75928;SDS011;64606;44.062;2.986;2023-06-24T13:02:07;4.03;;;3.10;;
75928;SDS011;64606;44.062;2.986;2023-06-24T13:04:33;4.15;;;3.08;;
75928;SDS011;64606;44.062;2.986;2023-06-24T13:06:59;7.45;;;3.05;;
75928;SDS011;64606;44.062;2.986;2023-06-24T13:09:25;3.15;;;2.60;;
75928;SDS011;64606;44.062;2.986;2023-06-24T13:11:52;7.50;;;3.30;;
75928;SDS011;64606;44.062;2.986;2023-06-24T13:14:18;4.13;;;3.00;;
75928;SDS011;64606;44.062;2.986;2023-06-24T13:16:44;4.03;;;2.50;;
75928;SDS011;64606;44.062;2.986;2023-06-24T13:19:10;5.13;;;2.83;;
75928;SDS011;64606;44.062;2.986;2023-06-24T13:21:36;3.40;;;2.40;;
75928;SDS011;64606;44.062;2.986;2023-06-24T13:24:02;4.00;;;3.17;;
75928;SDS011;64606;44.062;2.986;2023-06-24T13:26:28;5.18;;;2.72;;
75928;SDS011;64606;44.062;2.986;2023-06-24T13:28:55;4.32;;;2.90;;
75928;SDS011;64606;44.062;2.986;2023-06-24T13:31:21;4.03;;;3.00;;
75928;SDS011;64606;44.062;2.986;2023-06-24T13:33:47;7.47;;;2.80;;
75928;SDS011;64606;44.062;2.986;2023-06-24T13:36:27;5.22;;;2.80;;
75928;SDS011;64606;44.062;2.986;2023-06-24T13:38:54;5.53;;;2.75;;
75928;SDS011;64606;44.062;2.986;2023-06-24T13:41:20;4.13;;;3.10;;
75928;SDS011;64606;44.062;2.986;2023-06-24T13:43:46;7.22;;;3.00;;
75928;SDS011;64606;44.062;2.986;2023-06-24T13:46:12;4.32;;;2.88;;
75928;SDS011;64606;44.062;2.986;2023-06-24T13:48:38;6.95;;;3.00;;
75928;SDS011;64606;44.062;2.986;2023-06-24T13:51:05;3.17;;;2.55;;
75928;SDS011;64606;44.062;2.986;2023-06-24T13:53:31;3.22;;;2.65;;
75928;SDS011;64606;44.062;2.986;2023-06-24T13:55:58;4.03;;;3.05;;
75928;SDS011;64606;44.062;2.986;2023-06-24T13:58:24;5.85;;;2.80;;
75928;SDS011;64606;44.062;2.986;2023-06-24T14:00:50;4.97;;;3.05;;
75928;SDS011;64606;44.062;2.986;2023-06-24T14:03:16;7.22;;;3.47;;
75928;SDS011;64606;44.062;2.986;2023-06-24T14:05:42;3.58;;;2.92;;
75928;SDS011;64606;44.062;2.986;2023-06-24T14:08:08;4.85;;;2.90;;
75928;SDS011;64606;44.062;2.986;2023-06-24T14:10:34;4.00;;;2.83;;
75928;SDS011;64606;44.062;2.986;2023-06-24T14:13:00;3.90;;;3.00;;
75928;SDS011;64606;44.062;2.986;2023-06-24T14:15:27;4.50;;;2.75;;
75928;SDS011;64606;44.062;2.986;2023-06-24T14:17:54;3.20;;;2.53;;
75928;SDS011;64606;44.062;2.986;2023-06-24T14:20:20;3.97;;;3.00;;
75928;SDS011;64606;44.062;2.986;2023-06-24T14:22:46;5.55;;;3.20;;
75928;SDS011;64606;44.062;2.986;2023-06-24T14:25:12;4.35;;;2.90;;
75928;SDS011;64606;44.062;2.986;2023-06-24T14:27:39;5.22;;;3.13;;
75928;SDS011;64606;44.062;2.986;2023-06-24T14:30:05;5.57;;;2.63;;
75928;SDS011;64606;44.062;2.986;2023-06-24T14:32:31;3.97;;;2.50;;
75928;SDS011;64606;44.062;2.986;2023-06-24T14:34:57;3.20;;;2.45;;
75928;SDS011;64606;44.062;2.986;2023-06-24T14:37:24;4.40;;;3.03;;
75928;SDS011;64606;44.062;2.986;2023-06-24T14:39:50;3.67;;;2.80;;
75928;SDS011;64606;44.062;2.986;2023-06-24T14:42:16;4.10;;;2.75;;
75928;SDS011;64606;44.062;2.986;2023-06-24T14:44:42;4.35;;;2.50;;
75928;SDS011;64606;44.062;2.986;2023-06-24T14:47:08;3.33;;;2.70;;
75928;SDS011;64606;44.062;2.986;2023-06-24T14:49:34;3.30;;;2.63;;
75928;SDS011;64606;44.062;2.986;2023-06-24T14:52:00;3.53;;;2.50;;
75928;SDS011;64606;44.062;2.986;2023-06-24T14:54:26;4.70;;;2.80;;
75928;SDS011;64606;44.062;2.986;2023-06-24T14:56:52;3.10;;;2.65;;
75928;SDS011;64606;44.062;2.986;2023-06-24T14:59:18;3.45;;;2.63;;
75928;SDS011;64606;44.062;2.986;2023-06-24T15:01:44;4.82;;;2.90;;
75928;SDS011;64606;44.062;2.986;2023-06-24T15:04:11;3.88;;;2.70;;